Time;durP1;ratioP1;P1;durP2;ratioP2;P2;SDS_P1;SDS_P2;PMS_P1;PMS_P2;Temp;Humidity;BMP_temperature;BMP_pressure;BME280_temperature;BME280_humidity;BME280_pressure;Samples;Min_cycle;Max_cycle;Signal;HPM_P1;HPM_P2
2022/07/03 00:00:26;;;;;;;1.70;0.82;;;;;;;17.39;91.82;100900.34;5199520;28;20487;-74
2022/07/03 00:02:56;;;;;;;1.92;1.10;;;;;;;17.52;90.28;100890.78;5197232;28;20056;-74
2022/07/03 00:05:27;;;;;;;4.50;1.27;;;;;;;17.44;91.59;100885.94;5197733;28;20200;-74
2022/07/03 00:07:57;;;;;;;4.13;1.17;;;;;;;17.55;91.05;100886.19;5199405;28;20029;-74
2022/07/03 00:10:28;;;;;;;1.77;0.88;;;;;;;17.57;91.76;100883.41;5199397;28;20028;-74
2022/07/03 00:12:58;;;;;;;1.63;1.10;;;;;;;17.68;91.44;100886.28;5199080;28;20080;-74
2022/07/03 00:15:28;;;;;;;3.88;1.35;;;;;;;17.37;91.78;100879.31;5200403;28;20028;-74
2022/07/03 00:17:58;;;;;;;1.83;1.00;;;;;;;17.46;92.00;100884.06;5191447;28;20033;-71
2022/07/03 00:20:33;;;;;;;3.75;1.08;;;;;;;17.53;91.36;100877.50;5194032;28;20044;-75
2022/07/03 00:23:05;;;;;;;1.80;0.90;;;;;;;17.42;92.48;100877.25;5199271;28;20029;-74
2022/07/03 00:25:39;;;;;;;3.38;1.13;;;;;;;17.34;93.95;100876.00;5199775;28;20032;-74
2022/07/03 00:28:10;;;;;;;1.42;1.00;;;;;;;17.52;91.15;100874.91;5199590;28;20025;-74
2022/07/03 00:30:44;;;;;;;1.33;1.00;;;;;;;17.33;94.25;100871.63;5207153;28;20040;-74
2022/07/03 00:33:15;;;;;;;2.03;1.10;;;;;;;16.99;96.28;100874.50;5199579;28;20026;-74
2022/07/03 00:35:47;;;;;;;2.30;1.27;;;;;;;17.05;95.99;100866.22;5198345;28;20060;-74
2022/07/03 00:38:17;;;;;;;2.65;1.35;;;;;;;16.86;98.68;100863.81;5195157;28;20383;-74
2022/07/03 00:40:47;;;;;;;3.65;1.13;;;;;;;17.11;94.46;100852.69;5199519;28;20059;-75
2022/07/03 00:43:18;;;;;;;1.92;0.98;;;;;;;16.96;96.78;100845.66;5199507;28;20414;-74
2022/07/03 00:45:50;;;;;;;5.00;1.48;;;;;;;16.90;96.97;100843.31;5199586;28;20032;-74
2022/07/03 00:48:21;;;;;;;4.50;1.30;;;;;;;16.80;97.72;100842.16;5199180;28;20127;-74
2022/07/03 00:50:52;;;;;;;3.03;1.33;;;;;;;16.76;98.77;100839.78;5199161;28;20116;-74
2022/07/03 00:53:32;;;;;;;2.75;1.50;;;;;;;16.94;97.46;100837.78;5199094;28;20025;-75
2022/07/03 00:56:04;;;;;;;2.13;1.10;;;;;;;16.88;97.38;100838.16;5199565;28;20044;-74
2022/07/03 00:58:34;;;;;;;2.90;1.30;;;;;;;16.93;96.35;100840.50;5199217;28;20022;-74
2022/07/03 01:01:05;;;;;;;3.80;1.17;;;;;;;16.82;98.26;100835.00;5199461;28;20052;-74
2022/07/03 01:03:40;;;;;;;1.95;1.13;;;;;;;16.79;99.28;100835.19;5198955;28;20079;-74
2022/07/03 01:06:14;;;;;;;3.92;1.20;;;;;;;16.83;97.85;100839.34;5199211;28;20272;-74
2022/07/03 01:08:50;;;;;;;4.22;1.30;;;;;;;16.92;96.11;100826.47;5202345;28;20025;-74
2022/07/03 01:11:48;;;;;;;2.30;1.08;;;;;;;17.01;94.95;100820.66;5200347;28;20075;-74
2022/07/03 01:14:38;;;;;;;4.30;1.30;;;;;;;16.89;95.97;100823.16;5199322;28;20116;-74
2022/07/03 01:17:23;;;;;;;2.05;0.98;;;;;;;16.95;95.29;100812.25;5203282;28;20044;-74
2022/07/03 01:20:01;;;;;;;3.47;1.13;;;;;;;16.78;96.46;100818.47;5200208;28;20037;-74
2022/07/03 01:22:48;;;;;;;2.72;1.20;;;;;;;16.92;95.30;100813.28;5202673;28;20204;-74
2022/07/03 01:25:26;;;;;;;3.00;1.30;;;;;;;16.82;95.78;100819.16;5199219;28;20032;-74
2022/07/03 01:28:18;;;;;;;1.70;1.00;;;;;;;16.77;95.35;100820.38;5201906;28;20033;-74
2022/07/03 01:30:53;;;;;;;2.97;1.17;;;;;;;16.74;94.68;100815.25;5198973;28;20095;-74
2022/07/03 01:33:26;;;;;;;1.30;1.00;;;;;;;16.74;95.00;100816.09;5202040;28;20156;-74
2022/07/03 01:36:01;;;;;;;3.80;1.40;;;;;;;16.70;94.78;100814.56;5202362;28;20037;-74
2022/07/03 01:38:35;;;;;;;3.22;1.20;;;;;;;16.92;92.58;100815.03;5202448;28;20075;-74
2022/07/03 01:41:12;;;;;;;4.60;1.23;;;;;;;17.01;92.69;100814.53;5202360;28;20064;-75
2022/07/03 01:43:55;;;;;;;3.60;1.20;;;;;;;17.02;91.98;100808.31;5201754;28;20025;-74
2022/07/03 01:46:28;;;;;;;3.50;1.27;;;;;;;16.93;93.19;100812.31;5199400;28;20033;-74
2022/07/03 01:48:59;;;;;;;3.22;1.48;;;;;;;16.93;92.30;100803.53;5202571;28;20373;-74
2022/07/03 01:51:31;;;;;;;2.10;1.20;;;;;;;17.06;90.97;100796.63;5202138;28;20298;-74
2022/07/03 01:54:02;;;;;;;2.83;1.42;;;;;;;17.05;91.12;100794.91;5202024;28;20078;-74
2022/07/03 01:56:34;;;;;;;2.42;1.30;;;;;;;17.10;91.17;100798.13;5201887;28;20499;-74
2022/07/03 01:59:04;;;;;;;3.75;1.50;;;;;;;17.04;91.03;100803.78;5202495;28;20033;-74
2022/07/03 02:01:47;;;;;;;3.20;1.50;;;;;;;17.07;90.49;100798.31;5201854;28;20021;-74
2022/07/03 02:04:33;;;;;;;2.45;1.42;;;;;;;17.04;91.68;100787.94;5198052;28;20021;-74
2022/07/03 02:07:10;;;;;;;2.97;1.60;;;;;;;17.10;91.63;100793.72;5201959;28;20204;-74
2022/07/03 02:09:57;;;;;;;5.00;1.40;;;;;;;17.03;91.84;100791.53;5202237;28;20046;-74
2022/07/03 02:12:37;;;;;;;3.35;1.55;;;;;;;17.12;91.21;100793.63;5198971;28;20029;-74
2022/07/03 02:15:09;;;;;;;4.60;1.83;;;;;;;17.11;91.18;100789.28;5202357;28;20036;-74
2022/07/03 02:17:47;;;;;;;4.13;1.73;;;;;;;17.19;90.11;100787.91;5201282;28;20030;-74
2022/07/03 02:20:17;;;;;;;3.47;1.70;;;;;;;17.11;90.78;100791.94;5197714;28;20079;-72
2022/07/03 02:22:59;;;;;;;5.10;1.52;;;;;;;17.11;91.11;100795.41;5201259;28;20030;-74
2022/07/03 02:25:34;;;;;;;3.15;1.60;;;;;;;17.02;91.23;100793.31;5202247;28;20035;-73
2022/07/03 02:28:24;;;;;;;4.82;1.70;;;;;;;17.04;91.66;100793.22;5200189;28;20033;-73
2022/07/03 02:30:59;;;;;;;2.20;1.63;;;;;;;16.85;92.66;100795.22;5198921;28;20025;-74
2022/07/03 02:33:32;;;;;;;3.20;1.80;;;;;;;16.84;93.30;100788.25;5201265;28;20129;-74
2022/07/03 02:36:02;;;;;;;4.45;1.85;;;;;;;16.94;92.45;100787.63;5201553;28;20128;-73
2022/07/03 02:38:33;;;;;;;3.88;1.70;;;;;;;16.87;92.18;100790.69;5201120;28;20105;-73
2022/07/03 02:41:06;;;;;;;5.68;1.80;;;;;;;16.81;93.52;100794.53;5201454;28;20438;-73
2022/07/03 02:43:46;;;;;;;4.63;2.10;;;;;;;16.89;92.82;100788.81;5201017;28;20509;-74
2022/07/03 02:50:04;;;;;;;4.00;1.65;;;;;;;16.91;92.74;100787.81;5200780;28;20040;-74
2022/07/03 02:52:34;;;;;;;3.50;1.80;;;;;;;17.01;92.11;100791.59;5194679;28;20033;-74
2022/07/03 02:55:26;;;;;;;4.03;1.83;;;;;;;16.87;92.34;100781.00;5200705;28;20083;-74
2022/07/03 02:58:28;;;;;;;4.18;1.92;;;;;;;16.74;93.47;100789.69;5198169;28;20033;-74
2022/07/03 03:01:29;;;;;;;3.60;2.22;;;;;;;16.75;93.74;100793.22;5198950;28;20034;-74
2022/07/03 03:03:59;;;;;;;6.03;2.00;;;;;;;16.87;91.93;100796.84;5198960;28;20049;-74
2022/07/03 03:06:35;;;;;;;5.63;1.95;;;;;;;16.75;93.73;100794.03;5199987;28;20071;-74
2022/07/03 03:09:11;;;;;;;6.55;2.03;;;;;;;16.68;93.85;100790.06;5200637;28;20040;-74
2022/07/03 03:11:44;;;;;;;4.30;1.85;;;;;;;16.70;93.92;100790.00;5199466;28;20091;-74
2022/07/03 03:14:20;;;;;;;3.67;1.90;;;;;;;16.58;95.20;100793.31;5200116;28;20478;-73
2022/07/03 03:16:53;;;;;;;4.38;2.13;;;;;;;16.53;94.46;100790.94;5196551;28;20166;-74
2022/07/03 03:19:24;;;;;;;3.80;2.25;;;;;;;16.39;95.84;100787.38;5200609;28;20025;-74
2022/07/03 03:22:10;;;;;;;4.55;2.00;;;;;;;16.46;96.39;100784.31;5207158;28;20036;-74
2022/07/03 03:24:41;;;;;;;5.55;1.90;;;;;;;16.54;95.25;100786.50;5200746;28;20029;-74
2022/07/03 03:27:11;;;;;;;2.67;1.98;;;;;;;16.60;94.05;100781.75;5198894;28;20025;-74
2022/07/03 03:29:42;;;;;;;3.35;2.05;;;;;;;16.45;96.07;100782.59;5199411;28;20203;-74
2022/07/03 03:32:12;;;;;;;3.42;1.88;;;;;;;16.34;98.00;100784.94;5200040;28;20493;-75
2022/07/03 03:34:45;;;;;;;3.83;1.90;;;;;;;16.36;97.39;100783.09;5200063;28;20151;-74
2022/07/03 03:37:16;;;;;;;3.33;2.03;;;;;;;16.35;98.21;100785.84;5220089;23;20037;-71
2022/07/03 03:39:47;;;;;;;3.33;2.05;;;;;;;16.39;98.13;100780.28;5198188;28;20076;-72
2022/07/03 03:42:17;;;;;;;3.42;2.15;;;;;;;16.38;97.51;100785.66;5195985;28;20071;-72
2022/07/03 03:44:47;;;;;;;3.35;1.95;;;;;;;16.44;97.51;100780.91;5200365;28;20079;-72
2022/07/03 03:47:18;;;;;;;3.38;1.80;;;;;;;16.44;97.18;100788.81;5200127;28;20029;-71
2022/07/03 03:49:49;;;;;;;3.25;2.03;;;;;;;16.51;96.49;100779.59;5200065;28;20021;-72
2022/07/03 03:52:19;;;;;;;4.40;2.03;;;;;;;16.54;96.18;100786.50;5196695;28;20036;-71
2022/07/03 03:54:49;;;;;;;3.33;2.00;;;;;;;16.80;94.47;100778.81;5200150;28;20044;-71
2022/07/03 03:57:21;;;;;;;4.25;2.38;;;;;;;16.50;96.58;100783.19;5199794;28;20597;-71
2022/07/03 03:59:52;;;;;;;5.03;2.85;;;;;;;16.41;97.97;100781.06;5199651;28;20029;-71
2022/07/03 04:02:22;;;;;;;3.13;2.08;;;;;;;16.51;96.88;100784.88;5200043;28;20029;-72
2022/07/03 04:04:53;;;;;;;3.08;1.90;;;;;;;16.47;98.01;100779.88;5200464;28;20108;-72
2022/07/03 04:07:23;;;;;;;6.28;2.10;;;;;;;16.58;97.87;100777.47;5199680;28;20666;-72
2022/07/03 04:09:53;;;;;;;4.93;2.00;;;;;;;16.54;99.04;100773.31;5199364;28;20033;-71
2022/07/03 04:12:24;;;;;;;3.80;1.85;;;;;;;16.64;97.83;100772.72;5198955;28;20029;-71
2022/07/03 04:14:57;;;;;;;3.20;2.20;;;;;;;16.62;97.70;100774.59;5199964;28;20030;-72
2022/07/03 04:17:28;;;;;;;3.90;1.95;;;;;;;16.71;98.29;100774.03;5197663;28;20045;-72
2022/07/03 04:19:58;;;;;;;5.95;2.22;;;;;;;16.73;97.49;100766.88;5199770;28;20536;-72
2022/07/03 04:22:28;;;;;;;4.28;1.75;;;;;;;16.90;95.72;100764.13;5199112;28;20064;-72
2022/07/03 04:24:59;;;;;;;5.97;2.38;;;;;;;16.87;97.02;100759.03;5199646;28;20061;-72
2022/07/03 04:27:29;;;;;;;3.38;2.08;;;;;;;16.81;96.90;100762.88;5199178;28;20108;-71
2022/07/03 04:30:00;;;;;;;3.80;2.08;;;;;;;16.85;97.49;100763.53;5199619;28;20076;-72
2022/07/03 04:32:30;;;;;;;4.35;2.10;;;;;;;16.99;96.69;100756.50;5199173;28;20030;-71
2022/07/03 04:35:00;;;;;;;4.75;1.88;;;;;;;17.22;95.46;100771.00;5199350;28;20037;-72
2022/07/03 04:37:31;;;;;;;3.13;1.80;;;;;;;17.24;96.11;100764.69;5199047;28;20541;-72
2022/07/03 04:40:01;;;;;;;8.15;2.20;;;;;;;17.53;96.08;100760.31;5199124;28;20026;-72
2022/07/03 04:42:31;;;;;;;2.65;1.70;;;;;;;18.20;92.58;100761.28;5200855;28;20072;-73
2022/07/03 04:45:03;;;;;;;2.45;1.40;;;;;;;19.65;86.25;100750.59;5203829;28;20033;-73
2022/07/03 04:47:33;;;;;;;2.85;1.60;;;;;;;20.02;82.01;100755.91;5202504;28;20029;-73
2022/07/03 04:50:04;;;;;;;4.60;1.40;;;;;;;20.37;81.14;100745.38;5203481;28;20079;-73
2022/07/03 04:52:35;;;;;;;5.95;1.35;;;;;;;20.11;82.24;100759.69;5202651;28;20348;-73
2022/07/03 04:55:07;;;;;;;4.15;1.80;;;;;;;19.88;83.62;100748.03;5203766;28;20148;-73
2022/07/03 04:57:37;;;;;;;2.92;1.50;;;;;;;21.63;78.08;100747.19;5201939;28;20041;-72
2022/07/03 05:00:08;;;;;;;4.90;1.38;;;;;;;22.87;72.92;100739.63;5202645;28;20032;-73
2022/07/03 05:02:38;;;;;;;2.75;1.40;;;;;;;24.02;70.11;100736.72;5202170;28;20026;-73
2022/07/03 05:05:09;;;;;;;3.47;1.20;;;;;;;24.40;68.23;100736.81;5202882;28;20040;-73
2022/07/03 05:07:39;;;;;;;3.28;1.00;;;;;;;24.44;68.70;100733.72;5195089;28;20276;-73
2022/07/03 05:10:10;;;;;;;2.25;1.05;;;;;;;24.77;69.84;100728.00;5202639;28;20033;-73
2022/07/03 05:12:40;;;;;;;2.13;1.10;;;;;;;25.47;67.41;100736.56;5201915;28;20099;-73
2022/07/03 05:15:11;;;;;;;4.07;0.90;;;;;;;26.28;66.15;100733.94;5203137;28;20056;-73
2022/07/03 05:17:41;;;;;;;1.42;0.90;;;;;;;27.70;61.21;100738.97;5202145;28;20785;-71
2022/07/03 05:20:23;;;;;;;3.30;0.90;;;;;;;28.13;59.47;100736.16;5203228;28;20101;-72
2022/07/03 05:22:55;;;;;;;3.83;1.00;;;;;;;27.14;63.16;100749.28;5199730;28;20264;-72
2022/07/03 05:25:27;;;;;;;1.80;0.73;;;;;;;26.69;62.06;100749.53;5203331;28;20033;-71
2022/07/03 05:27:58;;;;;;;2.90;0.80;;;;;;;25.12;66.62;100752.34;5202504;28;20036;-71
2022/07/03 05:30:29;;;;;;;1.20;0.80;;;;;;;24.70;68.71;100742.91;5203231;28;20052;-70
2022/07/03 05:32:59;;;;;;;2.30;1.00;;;;;;;25.06;66.64;100737.72;5203094;28;20072;-71
2022/07/03 05:35:29;;;;;;;2.88;1.50;;;;;;;23.70;70.80;100741.31;5203188;28;20125;-73
2022/07/03 05:38:00;;;;;;;2.55;1.00;;;;;;;22.95;73.42;100747.81;5202728;28;20032;-73
2022/07/03 05:40:30;;;;;;;3.30;1.00;;;;;;;23.03;73.35;100750.69;5202379;28;20465;-72
2022/07/03 05:43:00;;;;;;;4.43;1.10;;;;;;;21.81;79.71;100751.06;5202845;28;20359;-72
2022/07/03 05:45:31;;;;;;;5.05;1.27;;;;;;;22.92;75.60;100740.94;5202895;28;20041;-72
2022/07/03 05:48:01;;;;;;;2.63;1.20;;;;;;;23.57;75.02;100740.69;5202299;28;20033;-73
2022/07/03 05:50:31;;;;;;;1.80;0.88;;;;;;;24.13;72.44;100745.44;5201753;28;20753;-72
2022/07/03 05:53:02;;;;;;;2.55;1.10;;;;;;;24.81;70.37;100734.75;5201523;28;20053;-72
2022/07/03 05:55:32;;;;;;;2.10;1.00;;;;;;;24.72;70.20;100734.75;5201136;28;20017;-72
2022/07/03 05:58:02;;;;;;;3.13;1.20;;;;;;;24.41;70.45;100733.97;5199227;28;20783;-72
2022/07/03 06:00:33;;;;;;;1.85;1.10;;;;;;;24.60;69.60;100728.72;5194899;28;20029;-72
2022/07/03 06:03:03;;;;;;;3.00;1.05;;;;;;;24.38;70.57;100728.91;5190490;28;20029;-72
2022/07/03 06:05:34;;;;;;;2.38;1.10;;;;;;;24.62;69.55;100732.09;5186839;28;20115;-72
2022/07/03 06:08:05;;;;;;;2.15;1.08;;;;;;;24.36;71.04;100725.53;5185477;28;20033;-72
2022/07/03 06:10:35;;;;;;;3.33;1.35;;;;;;;23.96;73.56;100729.22;5182874;28;20171;-72
2022/07/03 06:13:05;;;;;;;2.25;1.00;;;;;;;24.21;72.13;100723.41;5171326;28;20530;-73
2022/07/03 06:15:35;;;;;;;2.72;1.15;;;;;;;;;;5200255;28;20090;-72
2022/07/03 06:18:06;;;;;;;2.37;1.10;;;;;;;24.48;72.88;100716.41;5198637;28;20029;-72
2022/07/03 06:20:36;;;;;;;3.03;1.05;;;;;;;24.67;72.03;100719.97;5201017;28;20060;-72
2022/07/03 06:23:06;;;;;;;1.50;0.90;;;;;;;24.77;71.71;100709.28;5202030;28;20048;-72
2022/07/03 06:25:37;;;;;;;3.67;0.98;;;;;;;25.17;69.83;100718.81;5201994;28;20282;-72
2022/07/03 06:28:07;;;;;;;2.33;1.00;;;;;;;25.54;68.52;100710.88;5201440;28;20061;-72
2022/07/03 06:30:37;;;;;;;2.63;0.90;;;;;;;26.10;67.47;100709.81;5201879;28;20022;-72
2022/07/03 06:33:08;;;;;;;2.13;1.10;;;;;;;25.93;67.21;100709.75;5202121;28;20041;-72
2022/07/03 06:35:38;;;;;;;2.75;1.05;;;;;;;25.98;66.41;100710.16;5193039;28;20025;-72
2022/07/03 06:38:09;;;;;;;2.65;0.93;;;;;;;26.44;66.34;100715.34;5201768;28;20407;-72
2022/07/03 06:40:39;;;;;;;2.30;0.95;;;;;;;27.24;63.79;100709.78;5201993;28;20033;-72
2022/07/03 06:43:09;;;;;;;2.28;1.00;;;;;;;26.62;65.03;100714.44;5201841;28;20496;-72
2022/07/03 06:45:40;;;;;;;2.88;1.02;;;;;;;26.40;66.32;100711.31;5201942;28;20029;-72
2022/07/03 06:48:10;;;;;;;2.00;1.00;;;;;;;25.96;67.77;100712.13;5200395;28;20022;-72
2022/07/03 06:50:40;;;;;;;1.55;0.90;;;;;;;26.69;65.83;100711.97;5201985;28;20483;-72
2022/07/03 06:53:10;;;;;;;0.82;0.70;;;;;;;26.38;65.23;100715.97;5201777;28;20108;-73
2022/07/03 06:55:41;;;;;;;4.30;0.90;;;;;;;26.53;66.99;100719.88;5201612;28;20363;-72
2022/07/03 06:58:11;;;;;;;2.13;0.82;;;;;;;27.18;65.63;100717.63;5200997;28;20032;-72
2022/07/03 07:00:42;;;;;;;2.70;0.90;;;;;;;27.73;62.96;100711.81;5201743;28;20044;-72
2022/07/03 07:03:13;;;;;;;1.10;0.70;;;;;;;27.56;63.68;100707.31;5202065;28;20022;-73
2022/07/03 07:05:43;;;;;;;3.33;0.90;;;;;;;27.28;63.86;100710.31;5199860;28;20372;-73
2022/07/03 07:08:13;;;;;;;2.85;0.90;;;;;;;27.57;59.72;100702.75;5200206;28;20287;-72
2022/07/03 07:10:44;;;;;;;1.95;0.80;;;;;;;27.90;60.08;100713.56;5201788;28;20044;-73
2022/07/03 07:13:14;;;;;;;2.30;0.90;;;;;;;28.10;59.31;100706.91;5201096;28;20042;-72
2022/07/03 07:15:44;;;;;;;1.40;0.80;;;;;;;27.70;59.38;100713.94;5200175;28;20032;-72
2022/07/03 07:18:15;;;;;;;1.55;0.90;;;;;;;28.12;61.66;100718.34;5199469;28;20021;-72
2022/07/03 07:20:45;;;;;;;2.33;0.82;;;;;;;28.31;60.00;100719.97;5199897;28;20621;-73
2022/07/03 07:23:15;;;;;;;3.25;1.00;;;;;;;28.48;58.50;100719.00;5199639;28;20082;-73
2022/07/03 07:25:46;;;;;;;2.57;1.03;;;;;;;29.12;57.90;100714.53;5200135;28;20037;-73
2022/07/03 07:28:16;;;;;;;2.28;0.90;;;;;;;28.95;59.72;100719.09;5199371;28;20291;-73
2022/07/03 07:30:46;;;;;;;3.25;0.95;;;;;;;29.26;59.61;100716.56;5201531;28;20127;-73
2022/07/03 07:33:17;;;;;;;1.48;0.90;;;;;;;29.00;60.04;100724.81;5196897;28;20026;-72
2022/07/03 07:35:48;;;;;;;3.27;0.87;;;;;;;29.74;58.14;100722.69;5195411;28;20729;-73
2022/07/03 07:38:18;;;;;;;1.40;0.77;;;;;;;30.83;56.57;100724.38;5198436;28;20287;-73
2022/07/03 07:40:48;;;;;;;3.08;0.73;;;;;;;29.76;58.04;100726.06;5199317;28;20033;-72
2022/07/03 07:43:19;;;;;;;2.00;1.00;;;;;;;29.78;55.89;100717.81;5198176;28;20084;-71
2022/07/03 07:45:49;;;;;;;1.55;0.70;;;;;;;29.98;57.06;100728.03;5198122;28;20367;-71
2022/07/03 07:48:19;;;;;;;6.57;1.10;;;;;;;30.75;54.88;100730.69;5197472;28;20033;-71
2022/07/03 07:50:50;;;;;;;3.60;1.00;;;;;;;31.51;53.71;100723.31;5200194;28;20411;-71
2022/07/03 07:53:20;;;;;;;2.97;0.95;;;;;;;31.98;52.28;100718.38;5200684;28;20025;-71
2022/07/03 07:55:51;;;;;;;2.22;0.80;;;;;;;31.82;52.05;100716.72;5198411;28;20029;-71
2022/07/03 07:58:22;;;;;;;2.58;1.00;;;;;;;31.91;53.23;100717.47;5198555;28;20018;-71
2022/07/03 08:06:29;;;;;;;4.68;1.15;;;;;;;32.00;52.56;100714.47;5196373;28;21517;-71
2022/07/03 08:09:00;;;;;;;2.65;1.10;;;;;;;31.91;53.72;100712.88;5198665;28;20029;-71
2022/07/03 08:11:30;;;;;;;1.60;0.80;;;;;;;32.80;52.07;100707.13;5199237;28;20029;-71
2022/07/03 08:14:00;;;;;;;2.07;0.97;;;;;;;32.51;51.00;100710.75;5199012;28;20282;-71
2022/07/03 08:16:31;;;;;;;6.88;1.25;;;;;;;32.02;51.55;100707.00;5198231;28;20116;-71
2022/07/03 08:19:01;;;;;;;2.17;0.90;;;;;;;32.85;50.57;100710.91;5198345;28;20033;-71
2022/07/03 08:21:32;;;;;;;3.67;1.00;;;;;;;32.32;50.76;100714.06;5197032;28;20042;-71
2022/07/03 08:24:03;;;;;;;3.53;1.00;;;;;;;34.53;48.05;100715.81;5195921;28;20268;-71
2022/07/03 08:26:33;;;;;;;3.75;0.95;;;;;;;35.12;45.85;100715.72;5198352;28;20446;-71
2022/07/03 08:29:04;;;;;;;4.03;0.98;;;;;;;33.90;47.61;100718.88;5199219;28;20696;-71
2022/07/03 08:31:34;;;;;;;1.92;0.90;;;;;;;33.25;49.45;100715.69;5198753;28;20033;-71
2022/07/03 08:34:04;;;;;;;1.95;0.80;;;;;;;34.22;46.16;100718.22;5198078;28;20021;-71
2022/07/03 08:36:35;;;;;;;1.43;0.70;;;;;;;34.18;46.50;100719.63;5197737;28;20095;-72
2022/07/03 08:39:05;;;;;;;1.23;0.60;;;;;;;35.56;44.29;100710.50;5198237;28;20272;-72
2022/07/03 08:41:40;;;;;;;2.27;0.77;;;;;;;35.86;43.96;100711.72;5198103;28;20041;-71
2022/07/03 08:44:12;;;;;;;1.50;0.60;;;;;;;35.12;44.92;100710.28;5198432;28;20028;-71
2022/07/03 08:46:44;;;;;;;1.77;0.68;;;;;;;34.32;45.40;100718.69;5197477;28;20087;-71
2022/07/03 08:49:17;;;;;;;4.22;0.60;;;;;;;35.07;45.14;100715.50;5199404;28;20021;-71
2022/07/03 08:51:49;;;;;;;1.00;0.50;;;;;;;35.76;44.31;100713.22;5194163;28;20656;-71
2022/07/03 08:54:20;;;;;;;4.82;0.60;;;;;;;34.47;44.82;100716.63;5196917;28;20487;-70
2022/07/03 08:56:50;;;;;;;1.17;0.60;;;;;;;35.73;43.27;100706.28;5193896;28;20178;-70
2022/07/03 08:59:23;;;;;;;6.65;0.90;;;;;;;36.22;42.90;100712.03;5198344;28;20087;-70
2022/07/03 09:01:54;;;;;;;2.65;0.60;;;;;;;34.87;44.63;100719.25;5198238;28;20060;-70
2022/07/03 09:04:24;;;;;;;1.48;0.65;;;;;;;35.94;42.91;100711.47;5198360;28;20471;-71
2022/07/03 09:06:55;;;;;;;1.07;0.60;;;;;;;35.86;43.25;100703.53;5197078;28;20041;-71
2022/07/03 09:09:27;;;;;;;4.00;0.40;;;;;;;35.77;43.58;100706.72;5198607;28;20030;-71
2022/07/03 09:11:58;;;;;;;3.88;0.85;;;;;;;35.12;43.06;100710.28;5197665;28;20052;-71
2022/07/03 09:14:29;;;;;;;1.55;0.60;;;;;;;36.15;42.09;100708.47;5199250;28;20156;-71
2022/07/03 09:16:59;;;;;;;1.70;0.57;;;;;;;36.08;42.34;100712.25;5198550;28;20061;-70
2022/07/03 09:19:48;;;;;;;1.75;0.60;;;;;;;34.81;45.08;100716.50;5198725;28;20473;-70
2022/07/03 09:22:23;;;;;;;1.30;0.60;;;;;;;36.37;43.08;100703.56;5194828;28;20033;-71
2022/07/03 09:25:09;;;;;;;1.40;0.68;;;;;;;36.81;43.27;100712.53;5195644;28;20033;-71
2022/07/03 09:27:57;;;;;;;1.58;0.50;;;;;;;34.88;45.00;100712.75;5197694;28;20438;-71
2022/07/03 09:30:28;;;;;;;3.25;0.70;;;;;;;35.75;43.82;100712.34;5200391;28;20029;-70
2022/07/03 09:32:59;;;;;;;16.33;1.30;;;;;;;36.66;42.12;100706.56;5201603;28;20048;-70
2022/07/03 09:35:29;;;;;;;4.30;0.80;;;;;;;36.05;43.18;100702.63;5202742;28;20025;-70
2022/07/03 09:38:02;;;;;;;2.80;0.68;;;;;;;35.98;43.12;100704.53;5199272;23;20272;-75
2022/07/03 09:40:49;;;;;;;1.00;0.50;;;;;;;37.23;41.87;100692.72;5166732;28;20499;-75
2022/07/03 09:43:29;;;;;;;5.00;0.68;;;;;;;36.43;42.15;100695.34;5162115;28;20395;-75
2022/07/03 09:46:02;;;;;;;0.98;0.60;;;;;;;35.41;45.34;100699.00;5165076;28;20104;-75
2022/07/03 09:48:39;;;;;;;1.35;0.70;;;;;;;36.36;42.15;100691.84;5161873;28;20030;-76
2022/07/03 09:51:15;;;;;;;1.15;0.50;;;;;;;34.78;44.58;100700.63;5162798;28;20495;-75
2022/07/03 09:53:48;;;;;;;1.02;0.65;;;;;;;35.94;44.36;100691.59;5163164;28;20054;-75
2022/07/03 09:56:20;;;;;;;2.40;0.50;;;;;;;35.37;44.11;100689.59;5161036;28;20076;-75
2022/07/03 09:59:07;;;;;;;4.57;0.60;;;;;;;35.35;45.73;100697.13;5166722;28;20333;-75
2022/07/03 10:01:38;;;;;;;1.42;0.55;;;;;;;35.34;44.16;100684.59;5171948;28;20034;-74
2022/07/03 10:04:20;;;;;;;1.85;0.65;;;;;;;34.75;44.47;100690.19;5169090;28;20478;-75
2022/07/03 10:07:00;;;;;;;2.53;0.52;;;;;;;35.59;43.62;100685.56;5166628;28;20034;-75
2022/07/03 10:09:32;;;;;;;2.28;0.73;;;;;;;36.31;43.15;100683.47;5165469;28;20058;-75
2022/07/03 10:12:03;;;;;;;1.45;0.60;;;;;;;36.13;43.21;100683.34;5169534;28;20045;-76
2022/07/03 10:14:34;;;;;;;1.17;0.60;;;;;;;35.17;43.34;100687.94;5166625;28;20046;-76
2022/07/03 10:17:05;;;;;;;3.00;0.60;;;;;;;34.30;46.23;100688.16;5169466;28;20121;-74
2022/07/03 10:19:39;;;;;;;3.38;0.60;;;;;;;34.27;45.45;100694.84;5165769;28;20729;-74
2022/07/03 10:22:21;;;;;;;1.48;0.63;;;;;;;33.92;47.12;100695.06;5165963;28;20026;-75
2022/07/03 10:24:52;;;;;;;2.10;0.80;;;;;;;33.26;48.09;100692.94;5160966;28;20090;-75
2022/07/03 10:27:23;;;;;;;0.93;0.60;;;;;;;32.62;46.84;100701.28;5162576;28;20338;-76
2022/07/03 10:29:55;;;;;;;2.13;0.70;;;;;;;32.71;47.67;100692.03;5164909;28;20097;-75
2022/07/03 10:32:27;;;;;;;0.90;0.60;;;;;;;32.34;47.37;100698.47;5163805;28;20022;-75
2022/07/03 10:34:58;;;;;;;1.42;0.63;;;;;;;32.07;47.99;100691.03;5163977;28;20046;-74
2022/07/03 10:37:37;;;;;;;2.28;0.80;;;;;;;32.12;48.83;100695.88;5167012;28;20472;-74
2022/07/03 10:46:12;;;;;;;1.40;0.57;;;;;;;30.94;50.09;100681.59;5164140;28;20105;-75
2022/07/03 10:48:54;;;;;;;1.63;0.80;;;;;;;31.36;50.48;100677.31;5164914;28;20576;-74
2022/07/03 10:51:26;;;;;;;2.53;0.80;;;;;;;31.55;49.64;100671.34;5162723;28;20480;-74
2022/07/03 10:54:19;;;;;;;4.75;0.93;;;;;;;31.05;49.84;100671.16;5158902;28;20034;-74
2022/07/03 10:56:59;;;;;;;2.08;1.00;;;;;;;31.54;51.20;100664.28;5158455;28;20038;-74
2022/07/03 10:59:35;;;;;;;2.65;0.82;;;;;;;31.41;50.10;100664.09;5159653;28;20404;-73
2022/07/03 11:02:38;;;;;;;1.70;0.70;;;;;;;31.70;49.49;100655.19;5158618;28;20049;-74
2022/07/03 11:05:35;;;;;;;3.65;0.88;;;;;;;31.62;49.51;100661.50;5160723;28;20213;-75
2022/07/03 11:08:07;;;;;;;0.88;0.63;;;;;;;31.58;49.87;100654.78;5160615;28;20022;-72
2022/07/03 11:10:40;;;;;;;1.23;0.70;;;;;;;31.32;51.47;100662.50;5158581;28;20125;-75
2022/07/03 11:13:15;;;;;;;1.25;0.80;;;;;;;30.90;48.94;100655.97;5158545;28;20019;-74
2022/07/03 11:15:52;;;;;;;2.90;0.70;;;;;;;30.80;50.32;100651.84;5154113;28;20200;-75
2022/07/03 11:18:32;;;;;;;3.13;0.70;;;;;;;30.48;49.82;100652.91;5158756;28;20034;-76
2022/07/03 11:21:11;;;;;;;1.02;0.68;;;;;;;30.78;50.13;100649.31;5159561;28;20202;-75
2022/07/03 11:24:17;;;;;;;1.33;0.70;;;;;;;30.67;50.28;100654.31;5157191;28;20069;-75
2022/07/03 11:27:18;;;;;;;3.50;0.60;;;;;;;31.12;50.05;100647.84;5155322;28;20053;-74
2022/07/03 11:29:56;;;;;;;3.33;0.70;;;;;;;30.73;49.22;100650.88;5159648;28;20068;-75
2022/07/03 11:32:57;;;;;;;1.63;1.00;;;;;;;30.84;49.38;100649.44;5163276;28;20710;-75
2022/07/03 11:35:47;;;;;;;2.05;0.70;;;;;;;31.00;50.21;100645.75;5159267;28;20597;-75
2022/07/03 11:38:22;;;;;;;1.02;0.60;;;;;;;30.96;50.16;100639.88;5156771;28;20535;-74
2022/07/03 11:40:54;;;;;;;2.38;0.80;;;;;;;31.10;49.15;100643.63;5159072;28;20034;-75
2022/07/03 11:43:25;;;;;;;0.95;0.60;;;;;;;31.24;50.31;100643.69;5157641;28;20555;-75
2022/07/03 11:45:55;;;;;;;2.75;0.90;;;;;;;31.21;51.00;100635.94;5162321;28;20043;-75
2022/07/03 11:48:27;;;;;;;1.60;0.77;;;;;;;30.71;49.69;100642.97;5163638;28;20183;-76
2022/07/03 11:51:03;;;;;;;1.77;0.68;;;;;;;30.43;50.23;100636.41;5164700;28;20288;-75
2022/07/03 11:53:35;;;;;;;1.38;0.70;;;;;;;30.55;49.31;100643.06;5163644;28;20411;-75
2022/07/03 11:56:11;;;;;;;2.13;0.73;;;;;;;30.43;50.82;100640.97;5161527;28;20042;-74
2022/07/03 11:58:41;;;;;;;1.10;0.60;;;;;;;30.78;49.97;100645.78;5156145;28;20034;-74
2022/07/03 12:01:36;;;;;;;1.88;0.70;;;;;;;30.80;49.34;100646.44;5161591;28;20045;-75
2022/07/03 12:04:10;;;;;;;1.95;0.75;;;;;;;30.63;49.86;100640.31;5158159;28;20042;-75
2022/07/03 12:06:57;;;;;;;1.63;0.70;;;;;;;30.65;49.53;100645.56;5163706;28;20113;-75
2022/07/03 12:09:33;;;;;;;2.17;0.80;;;;;;;30.15;50.45;100650.59;5163665;28;20029;-77
2022/07/03 12:12:12;;;;;;;0.70;0.70;;;;;;;29.99;50.11;100647.94;5165513;28;20034;-74